createdAt,value
2022-11-27T00:01:13.163Z,1.83
2022-11-27T00:04:17.907Z,1.60
2022-11-27T00:07:21.168Z,2.58
2022-11-27T00:10:25.329Z,2.70
2022-11-27T00:13:29.857Z,1.85
2022-11-27T00:16:33.869Z,1.40
2022-11-27T00:19:37.344Z,1.50
2022-11-27T00:22:41.074Z,1.83
2022-11-27T00:25:52.019Z,2.03
2022-11-27T00:28:57.600Z,1.83
2022-11-27T00:32:00.827Z,3.20
2022-11-27T00:35:04.808Z,2.00
2022-11-27T00:38:08.018Z,2.00
2022-11-27T00:41:15.490Z,1.63
2022-11-27T00:44:20.411Z,2.22
2022-11-27T00:47:24.222Z,1.67
2022-11-27T00:50:31.525Z,1.60
2022-11-27T00:53:36.049Z,2.38
2022-11-27T00:56:41.464Z,2.05
2022-11-27T00:59:46.500Z,1.60
2022-11-27T01:02:49.954Z,2.42
2022-11-27T01:05:54.759Z,1.92
2022-11-27T01:08:59.457Z,2.33
2022-11-27T01:12:03.561Z,3.15
2022-11-27T01:15:10.104Z,1.30
2022-11-27T01:18:13.924Z,2.63
2022-11-27T01:21:21.021Z,1.88
2022-11-27T01:24:24.807Z,1.88
2022-11-27T01:27:28.082Z,2.60
2022-11-27T01:30:33.311Z,1.95
2022-11-27T01:33:36.933Z,2.17
2022-11-27T01:36:40.754Z,1.92
2022-11-27T01:39:44.217Z,2.40
2022-11-27T01:42:48.106Z,2.25
2022-11-27T01:45:52.718Z,2.47
2022-11-27T01:49:04.272Z,2.40
2022-11-27T01:52:13.003Z,2.92
2022-11-27T01:55:25.751Z,2.05
2022-11-27T01:58:32.538Z,2.22
2022-11-27T02:01:38.153Z,2.35
2022-11-27T02:04:41.725Z,2.37
2022-11-27T02:07:46.797Z,1.88
2022-11-27T02:10:58.737Z,2.92
2022-11-27T02:14:14.566Z,2.85
2022-11-27T02:17:28.993Z,2.40
2022-11-27T02:20:50.109Z,2.23
2022-11-27T02:24:43.304Z,2.25
2022-11-27T02:28:19.905Z,1.63
2022-11-27T02:31:39.110Z,1.90
2022-11-27T02:34:55.778Z,2.65
2022-11-27T02:38:07.615Z,2.53
2022-11-27T02:41:21.815Z,2.05
2022-11-27T02:44:32.700Z,2.05
2022-11-27T02:47:40.887Z,1.80
2022-11-27T02:50:47.947Z,2.50
2022-11-27T02:53:57.790Z,2.00
2022-11-27T02:57:06.053Z,1.63
2022-11-27T03:00:12.932Z,1.83
2022-11-27T03:03:25.194Z,2.60
2022-11-27T03:06:37.974Z,1.98
2022-11-27T03:09:47.030Z,2.07
2022-11-27T03:12:52.900Z,1.73
2022-11-27T03:16:14.310Z,1.52
2022-11-27T03:19:27.405Z,1.20
2022-11-27T03:22:31.724Z,2.15
2022-11-27T03:25:35.869Z,2.37
2022-11-27T03:28:41.171Z,2.10
2022-11-27T03:31:45.768Z,2.25
2022-11-27T03:34:51.320Z,1.50
2022-11-27T03:37:56.889Z,1.90
2022-11-27T03:41:11.669Z,2.00
2022-11-27T03:44:30.983Z,2.10
2022-11-27T03:47:51.415Z,1.88
2022-11-27T03:51:12.661Z,2.10
2022-11-27T03:54:28.184Z,2.35
2022-11-27T03:57:39.182Z,2.00
2022-11-27T04:00:46.657Z,2.00
2022-11-27T04:03:50.763Z,1.73
2022-11-27T04:06:55.401Z,1.48
2022-11-27T04:09:59.005Z,2.47
2022-11-27T04:13:02.385Z,2.10
2022-11-27T04:16:07.792Z,2.38
2022-11-27T04:19:11.094Z,1.80
2022-11-27T04:22:16.310Z,1.95
2022-11-27T04:25:19.671Z,2.60
2022-11-27T04:28:23.412Z,1.97
2022-11-27T04:31:26.710Z,2.05
2022-11-27T04:34:30.369Z,2.72
2022-11-27T04:37:34.958Z,2.67
2022-11-27T04:40:39.003Z,2.47
2022-11-27T04:43:42.275Z,1.90
2022-11-27T04:46:46.152Z,2.15
2022-11-27T04:49:49.412Z,2.72
2022-11-27T04:52:54.561Z,2.42
2022-11-27T04:55:58.015Z,3.05
2022-11-27T04:59:01.599Z,2.70
2022-11-27T05:02:05.228Z,1.95
2022-11-27T05:05:10.143Z,3.15
2022-11-27T05:08:14.927Z,2.80
2022-11-27T05:11:19.556Z,2.97
2022-11-27T05:14:27.823Z,2.50
2022-11-27T05:17:32.125Z,3.58
2022-11-27T05:20:35.378Z,1.98
2022-11-27T05:23:40.569Z,2.72
2022-11-27T05:26:44.559Z,2.00
2022-11-27T05:29:48.449Z,2.70
2022-11-27T05:32:51.801Z,3.35
2022-11-27T05:35:55.326Z,2.63
2022-11-27T05:39:01.783Z,2.08
2022-11-27T05:42:05.905Z,3.15
2022-11-27T05:45:10.266Z,2.60
2022-11-27T05:48:13.993Z,4.47
2022-11-27T05:51:18.568Z,3.10
2022-11-27T05:54:23.644Z,2.75
2022-11-27T05:57:28.157Z,2.55
2022-11-27T06:00:32.328Z,2.63
2022-11-27T06:03:35.917Z,3.67
2022-11-27T06:06:39.536Z,2.22
2022-11-27T06:09:44.169Z,2.53
2022-11-27T06:12:47.780Z,3.25
2022-11-27T06:15:51.039Z,2.70
2022-11-27T06:18:57.013Z,3.53
2022-11-27T06:22:00.237Z,2.75
2022-11-27T06:25:06.188Z,2.38
2022-11-27T06:28:09.497Z,3.05
2022-11-27T06:31:19.339Z,2.30
2022-11-27T06:34:22.584Z,2.28
2022-11-27T06:37:26.533Z,1.60
2022-11-27T06:40:31.149Z,2.40
2022-11-27T06:43:36.355Z,2.25
2022-11-27T06:46:39.772Z,2.20
2022-11-27T06:49:43.435Z,2.35
2022-11-27T06:52:46.653Z,3.50
2022-11-27T06:55:51.653Z,3.40
2022-11-27T06:58:57.388Z,3.00
2022-11-27T07:02:01.025Z,3.20
2022-11-27T07:05:04.619Z,3.35
2022-11-27T07:08:08.189Z,2.40
2022-11-27T07:11:15.795Z,3.25
2022-11-27T07:14:19.390Z,3.95
2022-11-27T07:17:22.578Z,3.27
2022-11-27T07:20:26.856Z,2.08
2022-11-27T07:23:30.230Z,2.92
2022-11-27T07:26:35.351Z,2.17
2022-11-27T07:29:38.569Z,2.92
2022-11-27T07:32:42.290Z,3.30
2022-11-27T07:35:45.431Z,3.33
2022-11-27T07:38:50.630Z,3.30
2022-11-27T07:41:57.219Z,3.65
2022-11-27T07:45:04.134Z,3.17
2022-11-27T07:48:09.284Z,3.03
2022-11-27T07:51:16.051Z,3.25
2022-11-27T07:54:19.295Z,3.70
2022-11-27T07:57:24.583Z,3.13
2022-11-27T08:00:27.799Z,2.95
2022-11-27T08:03:31.687Z,2.50
2022-11-27T08:06:34.890Z,3.00
2022-11-27T08:09:40.013Z,3.53
2022-11-27T08:12:44.809Z,2.67
2022-11-27T08:15:48.569Z,3.13
2022-11-27T08:18:52.701Z,3.27
2022-11-27T08:21:57.615Z,3.00
2022-11-27T08:25:01.031Z,2.97
2022-11-27T08:28:06.280Z,2.83
2022-11-27T08:31:12.942Z,3.63
2022-11-27T08:34:16.859Z,3.83
2022-11-27T08:37:20.217Z,3.92
2022-11-27T08:40:23.959Z,3.35
2022-11-27T08:43:30.366Z,3.03
2022-11-27T08:46:33.893Z,3.38
2022-11-27T08:49:40.566Z,2.97
2022-11-27T08:52:46.136Z,2.58
2022-11-27T08:55:49.344Z,3.30
2022-11-27T08:58:54.976Z,3.55
2022-11-27T09:01:58.391Z,2.78
2022-11-27T09:05:02.815Z,2.77
2022-11-27T09:08:06.524Z,3.72
2022-11-27T09:11:13.094Z,4.57
2022-11-27T09:14:17.688Z,3.95
2022-11-27T09:17:21.646Z,4.13
2022-11-27T09:20:24.853Z,3.63
2022-11-27T09:23:29.470Z,2.42
2022-11-27T09:26:32.773Z,2.90
2022-11-27T09:29:38.012Z,3.25
2022-11-27T09:32:41.188Z,3.35
2022-11-27T09:35:45.767Z,3.13
2022-11-27T09:38:49.879Z,3.70
2022-11-27T09:41:58.770Z,4.82
2022-11-27T09:45:09.128Z,3.83
2022-11-27T09:48:20.436Z,3.38
2022-11-27T09:51:34.043Z,3.27
2022-11-27T09:54:50.784Z,2.97
2022-11-27T09:58:03.391Z,2.22
2022-11-27T10:01:18.020Z,3.47
2022-11-27T10:04:22.632Z,2.97
2022-11-27T10:07:42.030Z,3.20
2022-11-27T10:11:03.262Z,3.22
2022-11-27T10:14:30.635Z,4.03
2022-11-27T10:17:44.412Z,4.40
2022-11-27T10:20:55.892Z,3.60
2022-11-27T10:24:14.930Z,4.37
2022-11-27T10:27:30.210Z,3.20
2022-11-27T10:30:41.495Z,2.95
2022-11-27T10:33:52.952Z,3.95
2022-11-27T10:37:00.211Z,2.70
2022-11-27T10:40:20.001Z,2.53
2022-11-27T10:43:26.139Z,3.22
2022-11-27T10:46:42.359Z,3.58
2022-11-27T10:49:49.169Z,3.42
2022-11-27T10:53:00.831Z,3.55
2022-11-27T10:56:37.678Z,3.07
2022-11-27T10:59:51.929Z,3.20
2022-11-27T11:03:02.431Z,2.80
2022-11-27T11:06:21.336Z,2.60
2022-11-27T11:09:29.781Z,2.58
2022-11-27T11:12:33.242Z,3.27
2022-11-27T11:15:52.406Z,2.53
2022-11-27T11:18:58.013Z,2.30
2022-11-27T11:22:18.269Z,2.90
2022-11-27T11:25:23.082Z,3.05
2022-11-27T11:28:27.419Z,1.97
2022-11-27T11:31:38.305Z,2.63
2022-11-27T11:34:47.900Z,3.17
2022-11-27T11:37:54.273Z,2.33
2022-11-27T11:41:04.403Z,2.85
2022-11-27T11:44:22.542Z,2.50
2022-11-27T11:47:26.666Z,2.35
2022-11-27T11:50:41.245Z,2.58
2022-11-27T11:54:03.850Z,1.70
2022-11-27T11:57:27.830Z,2.08
2022-11-27T12:01:04.840Z,3.00
2022-11-27T12:04:34.755Z,2.97
2022-11-27T12:08:05.025Z,2.70
2022-11-27T12:11:18.266Z,3.22
2022-11-27T12:14:42.387Z,3.08
2022-11-27T12:18:00.981Z,4.03
2022-11-27T12:21:16.379Z,3.33
2022-11-27T12:24:42.523Z,3.55
2022-11-27T12:28:12.750Z,2.97
2022-11-27T12:31:39.013Z,4.60
2022-11-27T12:35:04.324Z,3.47
2022-11-27T12:38:32.346Z,4.00
2022-11-27T12:41:59.972Z,3.58
2022-11-27T12:45:18.777Z,3.67
2022-11-27T12:48:32.154Z,3.42
2022-11-27T12:51:46.372Z,3.63
2022-11-27T12:54:55.765Z,3.42
2022-11-27T12:58:07.679Z,3.00
2022-11-27T13:01:26.362Z,3.13
2022-11-27T13:04:43.556Z,2.88
2022-11-27T13:07:53.696Z,2.90
2022-11-27T13:11:05.093Z,4.07
2022-11-27T13:14:16.680Z,3.22
2022-11-27T13:17:25.119Z,3.15
2022-11-27T13:20:38.070Z,2.50
2022-11-27T13:23:42.184Z,2.67
2022-11-27T13:27:04.714Z,3.17
2022-11-27T13:30:19.866Z,2.05
2022-11-27T13:33:37.670Z,3.47
2022-11-27T13:36:46.147Z,2.65
2022-11-27T13:39:49.540Z,3.63
2022-11-27T13:42:57.159Z,1.63
2022-11-27T13:46:12.612Z,2.47
2022-11-27T13:49:29.282Z,2.55
2022-11-27T13:52:32.905Z,2.75
2022-11-27T13:55:40.647Z,3.00
2022-11-27T13:58:44.609Z,2.13
2022-11-27T14:01:59.196Z,2.03
2022-11-27T14:05:04.175Z,2.03
2022-11-27T14:08:21.332Z,2.28
2022-11-27T14:11:39.944Z,2.70
2022-11-27T14:14:45.723Z,2.63
2022-11-27T14:17:52.623Z,2.95
2022-11-27T14:21:02.526Z,2.22
2022-11-27T14:24:27.820Z,4.05
2022-11-27T14:27:37.212Z,2.40
2022-11-27T14:30:47.938Z,2.38
2022-11-27T14:37:26.602Z,2.03
2022-11-27T14:40:30.369Z,2.15
2022-11-27T14:43:33.671Z,2.23
2022-11-27T14:46:38.820Z,2.20
2022-11-27T14:49:42.545Z,1.95
2022-11-27T14:52:55.488Z,3.05
2022-11-27T14:56:00.320Z,1.73
2022-11-27T14:59:06.739Z,2.30
2022-11-27T15:02:23.422Z,1.10
2022-11-27T15:05:40.935Z,1.65
2022-11-27T15:09:09.044Z,1.58
2022-11-27T15:12:22.266Z,1.10
2022-11-27T15:15:28.967Z,1.80
2022-11-27T15:18:38.140Z,1.60
2022-11-27T15:21:41.559Z,1.83
2022-11-27T15:24:47.064Z,2.08
2022-11-27T15:27:50.790Z,2.05
2022-11-27T15:30:55.409Z,2.40
2022-11-27T15:34:04.042Z,2.17
2022-11-27T15:37:24.501Z,2.22
2022-11-27T15:40:38.386Z,3.05
2022-11-27T15:43:41.955Z,2.53
2022-11-27T15:46:45.275Z,2.07
2022-11-27T15:49:49.334Z,2.22
2022-11-27T15:52:52.686Z,1.77
2022-11-27T15:55:59.318Z,2.78
2022-11-27T15:59:02.727Z,2.72
2022-11-27T16:02:07.738Z,2.03
2022-11-27T16:05:11.660Z,2.83
2022-11-27T16:08:16.161Z,3.05
2022-11-27T16:11:20.731Z,3.38
2022-11-27T16:14:24.540Z,2.80
2022-11-27T16:17:27.991Z,3.20
2022-11-27T16:20:31.663Z,3.85
2022-11-27T16:23:35.252Z,2.90
2022-11-27T16:26:41.460Z,2.08
2022-11-27T16:29:44.903Z,2.17
2022-11-27T16:32:48.663Z,2.90
2022-11-27T16:35:52.099Z,2.25
2022-11-27T16:38:56.947Z,2.00
2022-11-27T16:42:02.283Z,2.78
2022-11-27T16:45:07.811Z,2.35
2022-11-27T16:48:11.233Z,1.80
2022-11-27T16:51:18.077Z,3.03
2022-11-27T16:54:22.316Z,3.33
2022-11-27T16:57:29.205Z,3.53
2022-11-27T17:00:33.216Z,2.42
2022-11-27T17:03:37.639Z,3.23
2022-11-27T17:06:41.037Z,2.75
2022-11-27T17:09:44.580Z,3.22
2022-11-27T17:12:49.132Z,4.50
2022-11-27T17:15:52.675Z,3.72
2022-11-27T17:18:56.723Z,3.30
2022-11-27T17:22:00.453Z,3.80
2022-11-27T17:25:05.198Z,3.47
2022-11-27T17:28:10.507Z,3.40
2022-11-27T17:31:17.939Z,3.25
2022-11-27T17:34:22.246Z,3.60
2022-11-27T17:37:25.986Z,2.90
2022-11-27T17:40:30.603Z,2.70
2022-11-27T17:43:36.174Z,3.28
2022-11-27T17:46:40.644Z,2.63
2022-11-27T17:49:44.492Z,3.57
2022-11-27T17:52:48.383Z,3.10
2022-11-27T17:55:51.754Z,3.05
2022-11-27T17:58:59.702Z,3.28
2022-11-27T18:02:03.140Z,3.50
2022-11-27T18:05:08.180Z,2.87
2022-11-27T18:08:11.420Z,2.28
2022-11-27T18:11:18.775Z,3.30
2022-11-27T18:14:23.543Z,2.78
2022-11-27T18:17:29.409Z,3.05
2022-11-27T18:20:32.600Z,2.53
2022-11-27T18:23:49.666Z,3.67
2022-11-27T18:27:09.523Z,4.68
2022-11-27T18:30:16.167Z,5.70
2022-11-27T18:33:19.384Z,6.22
2022-11-27T18:36:23.154Z,4.03
2022-11-27T18:39:26.638Z,4.25
2022-11-27T18:42:32.737Z,4.88
2022-11-27T18:45:37.702Z,4.65
2022-11-27T18:48:43.900Z,3.53
2022-11-27T18:51:47.134Z,4.97
2022-11-27T18:54:50.924Z,3.30
2022-11-27T18:57:54.582Z,3.75
2022-11-27T19:00:59.622Z,4.55
2022-11-27T19:04:04.556Z,5.28
2022-11-27T19:07:08.276Z,5.13
2022-11-27T19:10:12.408Z,4.65
2022-11-27T19:13:16.289Z,4.03
2022-11-27T19:16:24.085Z,3.30
2022-11-27T19:19:53.944Z,3.72
2022-11-27T19:22:51.465Z,3.13
2022-11-27T19:25:57.336Z,3.58
2022-11-27T19:29:05.607Z,4.38
2022-11-27T19:32:11.678Z,3.65
2022-11-27T19:35:15.144Z,4.40
2022-11-27T19:38:18.698Z,4.10
2022-11-27T19:41:24.468Z,3.72
2022-11-27T19:44:28.450Z,3.58
2022-11-27T19:47:33.075Z,4.32
2022-11-27T19:50:36.914Z,4.68
2022-11-27T19:53:41.201Z,4.17
2022-11-27T19:56:44.781Z,3.13
2022-11-27T19:59:48.594Z,3.40
2022-11-27T20:02:53.669Z,3.60
2022-11-27T20:06:04.446Z,3.83
2022-11-27T20:09:08.500Z,3.50
2022-11-27T20:12:12.878Z,3.33
2022-11-27T20:15:16.901Z,3.17
2022-11-27T20:18:21.978Z,3.53
2022-11-27T20:21:27.376Z,4.13
2022-11-27T20:24:31.401Z,3.33
2022-11-27T20:27:35.690Z,2.63
2022-11-27T20:30:41.141Z,3.85
2022-11-27T20:33:47.129Z,3.22
2022-11-27T20:36:51.412Z,3.05
2022-11-27T20:39:55.331Z,3.73
2022-11-27T20:42:59.529Z,3.33
2022-11-27T20:46:04.535Z,2.65
2022-11-27T20:49:09.544Z,3.60
2022-11-27T20:52:14.511Z,3.28
2022-11-27T20:55:17.991Z,2.80
2022-11-27T20:58:23.019Z,2.90
2022-11-27T21:01:30.619Z,2.95
2022-11-27T21:04:35.917Z,3.70
2022-11-27T21:07:43.483Z,2.97
2022-11-27T21:10:47.536Z,2.77
2022-11-27T21:13:50.841Z,2.97
2022-11-27T21:16:55.247Z,2.63
2022-11-27T21:20:01.933Z,3.40
2022-11-27T21:23:06.046Z,2.83
2022-11-27T21:26:11.448Z,3.93
2022-11-27T21:29:16.600Z,2.80
2022-11-27T21:32:22.547Z,3.15
2022-11-27T21:35:32.049Z,2.67
2022-11-27T21:38:37.100Z,3.38
2022-11-27T21:41:40.872Z,4.03
2022-11-27T21:44:44.222Z,2.88
2022-11-27T21:47:47.922Z,2.65
2022-11-27T21:50:52.516Z,2.80
2022-11-27T21:53:59.026Z,3.47
2022-11-27T21:57:02.543Z,2.40
2022-11-27T22:00:08.283Z,3.78
2022-11-27T22:03:15.152Z,3.40
2022-11-27T22:06:20.342Z,2.90
2022-11-27T22:09:23.962Z,2.78
2022-11-27T22:12:27.704Z,3.83
2022-11-27T22:15:30.999Z,2.92
2022-11-27T22:18:34.804Z,2.42
2022-11-27T22:21:39.944Z,2.45
2022-11-27T22:24:44.388Z,2.28
2022-11-27T22:27:47.715Z,3.30
2022-11-27T22:30:51.590Z,3.47
2022-11-27T22:33:55.047Z,2.78
2022-11-27T22:37:01.780Z,3.05
2022-11-27T22:40:06.807Z,2.70
2022-11-27T22:43:10.400Z,2.00
2022-11-27T22:46:18.362Z,3.00
2022-11-27T22:49:22.535Z,2.05
2022-11-27T22:52:27.216Z,2.30
2022-11-27T22:55:30.845Z,2.58
2022-11-27T22:58:40.942Z,2.13
2022-11-27T23:01:45.352Z,2.83
2022-11-27T23:04:48.626Z,2.65
2022-11-27T23:07:53.952Z,2.70
2022-11-27T23:10:58.084Z,2.63
2022-11-27T23:14:01.933Z,1.93
2022-11-27T23:17:05.674Z,1.90
2022-11-27T23:20:10.780Z,1.55
2022-11-27T23:23:15.443Z,2.28
2022-11-27T23:26:23.412Z,2.55
2022-11-27T23:29:26.736Z,2.23
2022-11-27T23:32:30.740Z,2.75
2022-11-27T23:35:34.225Z,2.42
2022-11-27T23:38:41.115Z,2.53
2022-11-27T23:41:44.581Z,2.75
2022-11-27T23:44:48.313Z,2.03
2022-11-27T23:47:51.500Z,2.03
2022-11-27T23:50:55.244Z,2.05
2022-11-27T23:54:00.885Z,1.63
2022-11-27T23:57:04.838Z,1.88
